Terminal Aerodrome Forecast
Issued by NWS Newport/Morehead City, NC

Home | Current Version | Previous Version | Text Only | Print | Product List | Glossary Off
Versions: 1 2 3 4 5 6 7 8 9 10 11 12 13 14 15 16 17 18 19

614
FTUS42 KMHX 231334 AAA
TAFEWN
TAF AMD
KEWN 231334Z 2314/2412 34009KT P6SM VCSH BKN020
     FM231600 33010KT P6SM VCTS BKN025CB
     FM232300 34006KT P6SM BKN050
     FM240600 26002KT P6SM SKC=

USA.gov is the U.S. government's official web portal to all federal, state and local government web resources and services.